sensor_id;sensor_type;location;lat;lon;timestamp;pressure;altitude;pressure_sealevel;temperature;humidity
46614;BME280;32338;50.430;6.806;2023-04-06T00:00:02;65341.94;;;-0.76;100.00
46614;BME280;32338;50.430;6.806;2023-04-06T00:02:29;65331.00;;;-0.84;100.00
46614;BME280;32338;50.430;6.806;2023-04-06T00:04:56;65335.22;;;-0.82;100.00
46614;BME280;32338;50.430;6.806;2023-04-06T00:07:24;65330.09;;;-0.82;100.00
46614;BME280;32338;50.430;6.806;2023-04-06T00:09:51;65324.09;;;-0.92;100.00
46614;BME280;32338;50.430;6.806;2023-04-06T00:12:18;65324.09;;;-0.92;100.00
46614;BME280;32338;50.430;6.806;2023-04-06T00:14:44;65332.22;;;-0.87;100.00
46614;BME280;32338;50.430;6.806;2023-04-06T00:17:11;65332.78;;;-0.87;100.00
46614;BME280;32338;50.430;6.806;2023-04-06T00:19:38;65328.00;;;-0.89;100.00
46614;BME280;32338;50.430;6.806;2023-04-06T00:22:05;65325.88;;;-0.95;100.00
46614;BME280;32338;50.430;6.806;2023-04-06T00:24:33;65314.03;;;-1.02;100.00
46614;BME280;32338;50.430;6.806;2023-04-06T00:26:59;65307.91;;;-1.07;100.00
46614;BME280;32338;50.430;6.806;2023-04-06T00:29:26;65298.09;;;-1.14;100.00
46614;BME280;32338;50.430;6.806;2023-04-06T00:31:53;65300.09;;;-1.15;100.00
46614;BME280;32338;50.430;6.806;2023-04-06T00:34:20;65294.75;;;-1.17;100.00
46614;BME280;32338;50.430;6.806;2023-04-06T00:36:46;65273.56;;;-1.37;100.00
46614;BME280;32338;50.430;6.806;2023-04-06T00:39:13;65257.19;;;-1.54;100.00
46614;BME280;32338;50.430;6.806;2023-04-06T00:41:46;65254.63;;;-1.54;100.00
46614;BME280;32338;50.430;6.806;2023-04-06T00:44:15;65263.53;;;-1.46;100.00
46614;BME280;32338;50.430;6.806;2023-04-06T00:46:42;65265.69;;;-1.51;100.00
46614;BME280;32338;50.430;6.806;2023-04-06T00:49:09;65263.31;;;-1.49;100.00
46614;BME280;32338;50.430;6.806;2023-04-06T00:51:35;65247.72;;;-1.63;100.00
46614;BME280;32338;50.430;6.806;2023-04-06T00:54:02;65223.44;;;-1.83;100.00
46614;BME280;32338;50.430;6.806;2023-04-06T00:56:29;65212.75;;;-2.00;100.00
46614;BME280;32338;50.430;6.806;2023-04-06T00:58:57;65204.06;;;-2.06;100.00
46614;BME280;32338;50.430;6.806;2023-04-06T01:01:24;65216.53;;;-1.92;100.00
46614;BME280;32338;50.430;6.806;2023-04-06T01:03:51;65229.91;;;-1.80;100.00
46614;BME280;32338;50.430;6.806;2023-04-06T01:06:18;65243.81;;;-1.67;100.00
46614;BME280;32338;50.430;6.806;2023-04-06T01:08:45;65232.13;;;-1.77;100.00
46614;BME280;32338;50.430;6.806;2023-04-06T01:11:11;65229.91;;;-1.80;100.00
46614;BME280;32338;50.430;6.806;2023-04-06T01:13:38;65232.13;;;-1.77;100.00
46614;BME280;32338;50.430;6.806;2023-04-06T01:16:07;65240.47;;;-1.70;100.00
46614;BME280;32338;50.430;6.806;2023-04-06T01:18:35;65228.66;;;-1.76;100.00
46614;BME280;32338;50.430;6.806;2023-04-06T01:21:01;65233.00;;;-1.79;100.00
46614;BME280;32338;50.430;6.806;2023-04-06T01:23:30;65223.78;;;-1.85;100.00
46614;BME280;32338;50.430;6.806;2023-04-06T01:25:56;65226.34;;;-1.85;100.00
46614;BME280;32338;50.430;6.806;2023-04-06T01:28:23;65214.06;;;-1.97;100.00
46614;BME280;32338;50.430;6.806;2023-04-06T01:30:50;65192.25;;;-2.12;100.00
46614;BME280;32338;50.430;6.806;2023-04-06T01:33:16;65176.66;;;-2.26;100.00
46614;BME280;32338;50.430;6.806;2023-04-06T01:35:43;65159.19;;;-2.45;100.00
46614;BME280;32338;50.430;6.806;2023-04-06T01:38:10;65151.03;;;-2.50;100.00
46614;BME280;32338;50.430;6.806;2023-04-06T01:40:38;65162.88;;;-2.44;100.00
46614;BME280;32338;50.430;6.806;2023-04-06T01:43:05;65177.00;;;-2.29;100.00
46614;BME280;32338;50.430;6.806;2023-04-06T01:45:32;65182.00;;;-2.24;100.00
46614;BME280;32338;50.430;6.806;2023-04-06T01:47:58;65179.00;;;-2.29;100.00
46614;BME280;32338;50.430;6.806;2023-04-06T01:50:25;65170.31;;;-2.35;100.00
46614;BME280;32338;50.430;6.806;2023-04-06T01:52:52;65166.06;;;-2.36;100.00
46614;BME280;32338;50.430;6.806;2023-04-06T01:55:18;65179.56;;;-2.29;100.00
46614;BME280;32338;50.430;6.806;2023-04-06T01:57:47;65179.88;;;-2.31;100.00
46614;BME280;32338;50.430;6.806;2023-04-06T02:00:14;65175.53;;;-2.28;100.00
46614;BME280;32338;50.430;6.806;2023-04-06T02:02:41;65166.97;;;-2.38;100.00
46614;BME280;32338;50.430;6.806;2023-04-06T02:05:08;65150.38;;;-2.58;100.00
46614;BME280;32338;50.430;6.806;2023-04-06T02:07:35;65131.34;;;-2.71;100.00
46614;BME280;32338;50.430;6.806;2023-04-06T02:10:02;65117.75;;;-2.86;100.00
46614;BME280;32338;50.430;6.806;2023-04-06T02:12:29;65100.72;;;-2.99;100.00
46614;BME280;32338;50.430;6.806;2023-04-06T02:14:57;65089.81;;;-3.07;100.00
46614;BME280;32338;50.430;6.806;2023-04-06T02:17:24;65102.84;;;-2.92;100.00
46614;BME280;32338;50.430;6.806;2023-04-06T02:19:51;65125.44;;;-2.74;100.00
46614;BME280;32338;50.430;6.806;2023-04-06T02:22:17;65143.03;;;-2.60;100.00
46614;BME280;32338;50.430;6.806;2023-04-06T02:24:44;65143.03;;;-2.60;100.00
46614;BME280;32338;50.430;6.806;2023-04-06T02:27:11;65151.72;;;-2.54;100.00
46614;BME280;32338;50.430;6.806;2023-04-06T02:29:38;65136.56;;;-2.64;100.00
46614;BME280;32338;50.430;6.806;2023-04-06T02:32:06;65140.47;;;-2.60;100.00
46614;BME280;32338;50.430;6.806;2023-04-06T02:34:33;65127.44;;;-2.74;100.00
46614;BME280;32338;50.430;6.806;2023-04-06T02:37:00;65112.41;;;-2.88;100.00
46614;BME280;32338;50.430;6.806;2023-04-06T02:39:27;65094.63;;;-3.05;100.00
46614;BME280;32338;50.430;6.806;2023-04-06T02:41:53;65090.50;;;-3.11;100.00
46614;BME280;32338;50.430;6.806;2023-04-06T02:44:20;65074.25;;;-3.21;100.00
46614;BME280;32338;50.430;6.806;2023-04-06T02:46:47;65085.69;;;-3.13;100.00
46614;BME280;32338;50.430;6.806;2023-04-06T02:49:15;65097.41;;;-3.02;100.00
46614;BME280;32338;50.430;6.806;2023-04-06T02:51:42;65103.84;;;-2.99;100.00
46614;BME280;32338;50.430;6.806;2023-04-06T02:54:08;65100.50;;;-3.02;100.00
46614;BME280;32338;50.430;6.806;2023-04-06T02:56:35;65096.84;;;-3.03;100.00
46614;BME280;32338;50.430;6.806;2023-04-06T02:59:02;65105.31;;;-3.00;100.00
46614;BME280;32338;50.430;6.806;2023-04-06T03:01:28;65095.94;;;-3.01;100.00
46614;BME280;32338;50.430;6.806;2023-04-06T03:03:55;65103.53;;;-2.97;100.00
46614;BME280;32338;50.430;6.806;2023-04-06T03:06:23;65125.00;;;-2.79;100.00
46614;BME280;32338;50.430;6.806;2023-04-06T03:08:50;65109.84;;;-2.88;100.00
46614;BME280;32338;50.430;6.806;2023-04-06T03:11:17;65111.19;;;-2.85;100.00
46614;BME280;32338;50.430;6.806;2023-04-06T03:13:44;65117.97;;;-2.83;100.00
46614;BME280;32338;50.430;6.806;2023-04-06T03:16:11;65128.56;;;-2.73;100.00
46614;BME280;32338;50.430;6.806;2023-04-06T03:18:38;65120.44;;;-2.79;100.00
46614;BME280;32338;50.430;6.806;2023-04-06T03:21:04;65121.88;;;-2.80;100.00
46614;BME280;32338;50.430;6.806;2023-04-06T03:23:32;65116.88;;;-2.84;100.00
46614;BME280;32338;50.430;6.806;2023-04-06T03:26:01;65105.94;;;-2.92;100.00
46614;BME280;32338;50.430;6.806;2023-04-06T03:28:29;65103.28;;;-2.99;100.00
46614;BME280;32338;50.430;6.806;2023-04-06T03:30:55;65116.09;;;-2.87;100.00
46614;BME280;32338;50.430;6.806;2023-04-06T03:33:22;65097.41;;;-3.02;100.00
46614;BME280;32338;50.430;6.806;2023-04-06T03:35:49;65086.06;;;-3.15;100.00
46614;BME280;32338;50.430;6.806;2023-04-06T03:38:15;65097.94;;;-3.02;100.00
46614;BME280;32338;50.430;6.806;2023-04-06T03:40:44;65105.19;;;-2.95;100.00
46614;BME280;32338;50.430;6.806;2023-04-06T03:43:10;65093.38;;;-3.01;100.00
46614;BME280;32338;50.430;6.806;2023-04-06T03:45:37;65094.06;;;-3.05;100.00
46614;BME280;32338;50.430;6.806;2023-04-06T03:48:05;65095.72;;;-3.04;100.00
46614;BME280;32338;50.430;6.806;2023-04-06T03:50:31;65090.50;;;-3.11;100.00
46614;BME280;32338;50.430;6.806;2023-04-06T03:52:58;65075.69;;;-3.22;100.00
46614;BME280;32338;50.430;6.806;2023-04-06T03:55:27;65070.81;;;-3.32;100.00
46614;BME280;32338;50.430;6.806;2023-04-06T03:57:55;65055.13;;;-3.42;100.00
46614;BME280;32338;50.430;6.806;2023-04-06T04:00:22;65041.22;;;-3.54;100.00
46614;BME280;32338;50.430;6.806;2023-04-06T04:02:49;65037.44;;;-3.63;100.00
46614;BME280;32338;50.430;6.806;2023-04-06T04:05:16;65030.09;;;-3.65;100.00
46614;BME280;32338;50.430;6.806;2023-04-06T04:07:42;65020.84;;;-3.71;100.00
46614;BME280;32338;50.430;6.806;2023-04-06T04:10:09;65018.06;;;-3.73;100.00
46614;BME280;32338;50.430;6.806;2023-04-06T04:12:36;65012.84;;;-3.81;100.00
46614;BME280;32338;50.430;6.806;2023-04-06T04:15:05;65024.31;;;-3.72;100.00
46614;BME280;32338;50.430;6.806;2023-04-06T04:17:32;65037.09;;;-3.61;100.00
46614;BME280;32338;50.430;6.806;2023-04-06T04:19:58;65050.13;;;-3.46;100.00
46614;BME280;32338;50.430;6.806;2023-04-06T04:22:25;65048.66;;;-3.45;100.00
46614;BME280;32338;50.430;6.806;2023-04-06T04:24:53;65044.34;;;-3.54;100.00
46614;BME280;32338;50.430;6.806;2023-04-06T04:27:19;65036.22;;;-3.59;100.00
46614;BME280;32338;50.430;6.806;2023-04-06T04:29:47;65037.88;;;-3.58;100.00
46614;BME280;32338;50.430;6.806;2023-04-06T04:32:15;65031.97;;;-3.61;100.00
46614;BME280;32338;50.430;6.806;2023-04-06T04:34:41;65029.41;;;-3.61;100.00
46614;BME280;32338;50.430;6.806;2023-04-06T04:37:08;65051.56;;;-3.47;100.00
46614;BME280;32338;50.430;6.806;2023-04-06T04:39:35;65051.56;;;-3.47;100.00
46614;BME280;32338;50.430;6.806;2023-04-06T04:42:02;65055.22;;;-3.46;100.00
46614;BME280;32338;50.430;6.806;2023-04-06T04:44:28;65043.97;;;-3.52;100.00
46614;BME280;32338;50.430;6.806;2023-04-06T04:46:55;65039.00;;;-3.56;100.00
46614;BME280;32338;50.430;6.806;2023-04-06T04:49:23;65032.53;;;-3.60;100.00
46614;BME280;32338;50.430;6.806;2023-04-06T04:51:50;65030.41;;;-3.67;100.00
46614;BME280;32338;50.430;6.806;2023-04-06T04:54:18;65047.56;;;-3.46;100.00
46614;BME280;32338;50.430;6.806;2023-04-06T04:56:46;65065.91;;;-3.29;100.00
46614;BME280;32338;50.430;6.806;2023-04-06T04:59:13;65080.16;;;-3.18;100.00
46614;BME280;32338;50.430;6.806;2023-04-06T05:01:39;65081.94;;;-3.21;100.00
46614;BME280;32338;50.430;6.806;2023-04-06T05:04:06;65064.56;;;-3.33;100.00
46614;BME280;32338;50.430;6.806;2023-04-06T05:06:34;65071.38;;;-3.31;100.00
46614;BME280;32338;50.430;6.806;2023-04-06T05:09:01;65085.91;;;-3.11;100.00
46614;BME280;32338;50.430;6.806;2023-04-06T05:11:28;65089.81;;;-3.07;100.00
46614;BME280;32338;50.430;6.806;2023-04-06T05:13:55;65099.84;;;-2.98;100.00
46614;BME280;32338;50.430;6.806;2023-04-06T05:16:22;65125.78;;;-2.76;100.00
46614;BME280;32338;50.430;6.806;2023-04-06T05:18:49;65135.03;;;-2.70;100.00
46614;BME280;32338;50.430;6.806;2023-04-06T05:21:15;65138.03;;;-2.65;100.00
46614;BME280;32338;50.430;6.806;2023-04-06T05:23:44;65146.94;;;-2.56;100.00
46614;BME280;32338;50.430;6.806;2023-04-06T05:26:10;65150.03;;;-2.56;100.00
46614;BME280;32338;50.430;6.806;2023-04-06T05:28:37;65144.16;;;-2.59;100.00
46614;BME280;32338;50.430;6.806;2023-04-06T05:31:04;65171.97;;;-2.33;100.00
46614;BME280;32338;50.430;6.806;2023-04-06T05:33:30;65173.63;;;-2.32;100.00
46614;BME280;32338;50.430;6.806;2023-04-06T05:35:57;65169.41;;;-2.33;100.00
46614;BME280;32338;50.430;6.806;2023-04-06T05:38:25;65172.31;;;-2.35;100.00
46614;BME280;32338;50.430;6.806;2023-04-06T05:40:54;65174.00;;;-2.34;100.00
46614;BME280;32338;50.430;6.806;2023-04-06T05:43:21;65195.38;;;-2.12;100.00
46614;BME280;32338;50.430;6.806;2023-04-06T05:45:47;65195.91;;;-2.11;100.00
46614;BME280;32338;50.430;6.806;2023-04-06T05:48:14;65215.53;;;-1.98;100.00
46614;BME280;32338;50.430;6.806;2023-04-06T05:50:41;65207.84;;;-1.98;100.00
46614;BME280;32338;50.430;6.806;2023-04-06T05:53:07;65205.38;;;-2.02;100.00
46614;BME280;32338;50.430;6.806;2023-04-06T05:55:34;65202.59;;;-2.05;100.00
46614;BME280;32338;50.430;6.806;2023-04-06T05:58:02;65212.63;;;-1.96;100.00
46614;BME280;32338;50.430;6.806;2023-04-06T06:00:29;65220.75;;;-1.90;100.00
46614;BME280;32338;50.430;6.806;2023-04-06T06:02:56;65238.59;;;-1.74;100.00
46614;BME280;32338;50.430;6.806;2023-04-06T06:05:22;65242.72;;;-1.68;100.00
46614;BME280;32338;50.430;6.806;2023-04-06T06:07:49;65240.47;;;-1.70;100.00
46614;BME280;32338;50.430;6.806;2023-04-06T06:10:16;65255.19;;;-1.54;100.00
46614;BME280;32338;50.430;6.806;2023-04-06T06:12:43;65267.56;;;-1.47;100.00
46614;BME280;32338;50.430;6.806;2023-04-06T06:15:12;65273.56;;;-1.37;100.00
46614;BME280;32338;50.430;6.806;2023-04-06T06:17:38;65280.81;;;-1.30;100.00
46614;BME280;32338;50.430;6.806;2023-04-06T06:20:06;65267.03;;;-1.48;100.00
46614;BME280;32338;50.430;6.806;2023-04-06T06:22:34;65277.59;;;-1.38;100.00
46614;BME280;32338;50.430;6.806;2023-04-06T06:25:00;65294.88;;;-1.22;100.00
46614;BME280;32338;50.430;6.806;2023-04-06T06:27:27;65309.16;;;-1.11;100.00
46614;BME280;32338;50.430;6.806;2023-04-06T06:29:54;65327.09;;;-0.87;100.00
46614;BME280;32338;50.430;6.806;2023-04-06T06:32:22;65361.78;;;-0.60;100.00
46614;BME280;32338;50.430;6.806;2023-04-06T06:34:50;65357.75;;;-0.59;100.00
46614;BME280;32338;50.430;6.806;2023-04-06T06:37:16;65376.84;;;-0.46;100.00
46614;BME280;32338;50.430;6.806;2023-04-06T06:39:43;65393.25;;;-0.28;100.00
46614;BME280;32338;50.430;6.806;2023-04-06T06:42:10;65412.22;;;-0.11;100.00
46614;BME280;32338;50.430;6.806;2023-04-06T06:44:37;65418.13;;;-0.08;100.00
46614;BME280;32338;50.430;6.806;2023-04-06T06:47:03;65441.22;;;0.16;100.00
46614;BME280;32338;50.430;6.806;2023-04-06T06:49:31;65443.47;;;0.18;100.00
46614;BME280;32338;50.430;6.806;2023-04-06T06:51:58;65458.66;;;0.27;100.00
46614;BME280;32338;50.430;6.806;2023-04-06T06:54:25;65460.19;;;0.34;100.00
46614;BME280;32338;50.430;6.806;2023-04-06T06:56:52;65459.88;;;0.36;100.00
46614;BME280;32338;50.430;6.806;2023-04-06T06:59:19;65471.94;;;0.44;100.00
46614;BME280;32338;50.430;6.806;2023-04-06T07:01:47;65469.34;;;0.44;100.00
46614;BME280;32338;50.430;6.806;2023-04-06T07:04:14;65479.75;;;0.52;100.00
46614;BME280;32338;50.430;6.806;2023-04-06T07:06:42;65494.25;;;0.65;100.00
46614;BME280;32338;50.430;6.806;2023-04-06T07:09:08;65506.53;;;0.76;100.00
46614;BME280;32338;50.430;6.806;2023-04-06T07:11:35;65518.28;;;0.87;100.00
46614;BME280;32338;50.430;6.806;2023-04-06T07:14:02;65530.97;;;1.04;100.00
46614;BME280;32338;50.430;6.806;2023-04-06T07:16:29;65549.97;;;1.21;100.00
46614;BME280;32338;50.430;6.806;2023-04-06T07:18:55;65594.03;;;1.55;100.00
46614;BME280;32338;50.430;6.806;2023-04-06T07:21:22;65614.50;;;1.71;100.00
46614;BME280;32338;50.430;6.806;2023-04-06T07:23:50;65621.09;;;1.82;100.00
46614;BME280;32338;50.430;6.806;2023-04-06T07:26:17;65640.44;;;1.98;100.00
46614;BME280;32338;50.430;6.806;2023-04-06T07:28:43;65650.72;;;2.09;100.00
46614;BME280;32338;50.430;6.806;2023-04-06T07:31:10;65668.97;;;2.24;100.00
46614;BME280;32338;50.430;6.806;2023-04-06T07:33:37;65688.38;;;2.47;100.00
46614;BME280;32338;50.430;6.806;2023-04-06T07:36:04;65697.91;;;2.55;100.00
46614;BME280;32338;50.430;6.806;2023-04-06T07:38:31;65706.84;;;2.64;100.00
46614;BME280;32338;50.430;6.806;2023-04-06T07:40:59;65721.41;;;2.77;100.00
46614;BME280;32338;50.430;6.806;2023-04-06T07:43:28;65730.78;;;2.90;100.00
46614;BME280;32338;50.430;6.806;2023-04-06T07:45:55;65765.41;;;3.15;100.00
46614;BME280;32338;50.430;6.806;2023-04-06T07:48:22;65767.31;;;3.19;100.00
46614;BME280;32338;50.430;6.806;2023-04-06T07:50:49;65776.25;;;3.28;100.00
46614;BME280;32338;50.430;6.806;2023-04-06T07:53:16;65785.69;;;3.29;100.00
46614;BME280;32338;50.430;6.806;2023-04-06T07:55:43;65797.88;;;3.45;100.00
46614;BME280;32338;50.430;6.806;2023-04-06T07:58:11;65807.03;;;3.56;100.00
46614;BME280;32338;50.430;6.806;2023-04-06T08:00:38;65828.47;;;3.71;100.00
46614;BME280;32338;50.430;6.806;2023-04-06T08:03:04;65848.84;;;3.92;100.00
46614;BME280;32338;50.430;6.806;2023-04-06T08:05:31;65893.84;;;4.36;100.00
46614;BME280;32338;50.430;6.806;2023-04-06T08:07:58;65886.72;;;4.25;100.00
46614;BME280;32338;50.430;6.806;2023-04-06T08:10:24;65894.22;;;4.34;100.00
46614;BME280;32338;50.430;6.806;2023-04-06T08:12:52;65906.75;;;4.48;100.00
46614;BME280;32338;50.430;6.806;2023-04-06T08:15:20;65920.53;;;4.58;100.00
46614;BME280;32338;50.430;6.806;2023-04-06T08:17:47;65927.84;;;4.65;100.00
46614;BME280;32338;50.430;6.806;2023-04-06T08:20:13;65951.94;;;4.87;100.00
46614;BME280;32338;50.430;6.806;2023-04-06T08:22:40;65959.94;;;4.90;100.00
46614;BME280;32338;50.430;6.806;2023-04-06T08:25:07;65958.44;;;4.91;100.00
46614;BME280;32338;50.430;6.806;2023-04-06T08:27:34;65971.00;;;5.05;100.00
46614;BME280;32338;50.430;6.806;2023-04-06T08:30:01;65996.22;;;5.28;100.00
46614;BME280;32338;50.430;6.806;2023-04-06T08:32:29;65992.50;;;5.27;100.00
46614;BME280;32338;50.430;6.806;2023-04-06T08:34:56;65993.63;;;5.28;100.00
46614;BME280;32338;50.430;6.806;2023-04-06T08:37:22;66033.63;;;5.60;100.00
46614;BME280;32338;50.430;6.806;2023-04-06T08:39:49;66036.03;;;5.64;100.00
46614;BME280;32338;50.430;6.806;2023-04-06T08:42:19;66049.72;;;5.79;100.00
46614;BME280;32338;50.430;6.806;2023-04-06T08:44:48;66048.59;;;5.78;100.00
46614;BME280;32338;50.430;6.806;2023-04-06T08:47:15;66070.50;;;5.98;100.00
46614;BME280;32338;50.430;6.806;2023-04-06T08:49:44;66083.63;;;6.13;100.00
46614;BME280;32338;50.430;6.806;2023-04-06T08:52:11;66088.63;;;6.10;100.00
46614;BME280;32338;50.430;6.806;2023-04-06T08:54:38;66096.09;;;6.20;100.00
46614;BME280;32338;50.430;6.806;2023-04-06T08:57:05;66113.72;;;6.38;100.00
46614;BME280;32338;50.430;6.806;2023-04-06T08:59:33;66102.69;;;6.30;97.92
46614;BME280;32338;50.430;6.806;2023-04-06T09:02:03;66096.09;;;6.20;96.75
46614;BME280;32338;50.430;6.806;2023-04-06T09:04:31;66105.09;;;6.28;96.31
46614;BME280;32338;50.430;6.806;2023-04-06T09:07:00;66082.66;;;6.07;94.43
46614;BME280;32338;50.430;6.806;2023-04-06T09:09:27;66091.44;;;6.13;100.00
46614;BME280;32338;50.430;6.806;2023-04-06T09:11:53;66098.94;;;6.22;98.91
46614;BME280;32338;50.430;6.806;2023-04-06T09:14:33;66114.63;;;6.37;98.66
46614;BME280;32338;50.430;6.806;2023-04-06T09:17:01;66124.19;;;6.45;98.84
46614;BME280;32338;50.430;6.806;2023-04-06T09:19:28;66155.44;;;6.72;95.13
46614;BME280;32338;50.430;6.806;2023-04-06T09:22:03;66178.84;;;6.98;99.05
46614;BME280;32338;50.430;6.806;2023-04-06T09:24:40;66191.41;;;7.12;96.88
46614;BME280;32338;50.430;6.806;2023-04-06T09:27:07;66216.31;;;7.30;96.24
46614;BME280;32338;50.430;6.806;2023-04-06T09:29:33;66208.28;;;7.27;90.28
46614;BME280;32338;50.430;6.806;2023-04-06T09:32:03;66210.31;;;7.27;95.39
46614;BME280;32338;50.430;6.806;2023-04-06T09:34:30;66201.34;;;7.19;89.98
46614;BME280;32338;50.430;6.806;2023-04-06T09:36:57;66206.75;;;7.21;94.06
46614;BME280;32338;50.430;6.806;2023-04-06T09:39:26;66200.22;;;7.18;91.32
46614;BME280;32338;50.430;6.806;2023-04-06T09:41:53;66203.22;;;7.23;87.17
46614;BME280;32338;50.430;6.806;2023-04-06T09:44:21;66204.69;;;7.22;91.12
46614;BME280;32338;50.430;6.806;2023-04-06T09:46:49;66197.41;;;7.15;89.41
46614;BME280;32338;50.430;6.806;2023-04-06T09:49:17;66220.22;;;7.34;89.20
46614;BME280;32338;50.430;6.806;2023-04-06T09:51:46;66226.00;;;7.34;95.08
46614;BME280;32338;50.430;6.806;2023-04-06T09:54:18;66244.97;;;7.56;88.15
46614;BME280;32338;50.430;6.806;2023-04-06T09:56:48;66247.03;;;7.63;83.12
46614;BME280;32338;50.430;6.806;2023-04-06T09:59:20;66258.44;;;7.69;84.08
46614;BME280;32338;50.430;6.806;2023-04-06T10:01:52;66260.31;;;7.73;85.68
46614;BME280;32338;50.430;6.806;2023-04-06T10:04:29;66272.84;;;7.79;88.18
46614;BME280;32338;50.430;6.806;2023-04-06T10:07:00;66280.72;;;7.87;85.36
46614;BME280;32338;50.430;6.806;2023-04-06T10:09:29;66272.13;;;7.84;85.97
46614;BME280;32338;50.430;6.806;2023-04-06T10:12:03;66275.50;;;7.87;81.88
46614;BME280;32338;50.430;6.806;2023-04-06T10:14:31;66276.44;;;7.85;80.72
46614;BME280;32338;50.430;6.806;2023-04-06T10:17:02;66270.09;;;7.84;83.09
46614;BME280;32338;50.430;6.806;2023-04-06T10:19:34;66301.38;;;8.10;78.21
46614;BME280;32338;50.430;6.806;2023-04-06T10:22:05;66295.53;;;8.03;79.05
46614;BME280;32338;50.430;6.806;2023-04-06T10:24:32;66278.13;;;7.87;79.00
46614;BME280;32338;50.430;6.806;2023-04-06T10:27:03;66300.59;;;8.07;79.94
46614;BME280;32338;50.430;6.806;2023-04-06T10:29:42;66284.50;;;7.95;81.79
46614;BME280;32338;50.430;6.806;2023-04-06T10:32:10;66293.13;;;8.05;80.58
46614;BME280;32338;50.430;6.806;2023-04-06T10:34:37;66302.50;;;8.11;80.92
46614;BME280;32338;50.430;6.806;2023-04-06T10:37:11;66319.16;;;8.24;80.00
46614;BME280;32338;50.430;6.806;2023-04-06T10:39:46;66319.72;;;8.25;81.22
46614;BME280;32338;50.430;6.806;2023-04-06T10:42:14;66309.25;;;8.18;76.94
46614;BME280;32338;50.430;6.806;2023-04-06T10:44:44;66331.38;;;8.40;82.01
46614;BME280;32338;50.430;6.806;2023-04-06T10:47:18;66319.50;;;8.22;75.75
46614;BME280;32338;50.430;6.806;2023-04-06T10:49:45;66302.13;;;8.14;76.54
46614;BME280;32338;50.430;6.806;2023-04-06T10:52:12;66292.94;;;8.03;76.09
46614;BME280;32338;50.430;6.806;2023-04-06T10:54:41;66319.53;;;8.30;77.77
46614;BME280;32338;50.430;6.806;2023-04-06T10:57:09;66322.16;;;8.30;75.54
46614;BME280;32338;50.430;6.806;2023-04-06T10:59:42;66364.16;;;8.66;76.07
46614;BME280;32338;50.430;6.806;2023-04-06T11:02:08;66348.06;;;8.53;75.13
46614;BME280;32338;50.430;6.806;2023-04-06T11:04:35;66354.81;;;8.59;76.96
46614;BME280;32338;50.430;6.806;2023-04-06T11:07:02;66375.22;;;8.73;75.01
46614;BME280;32338;50.430;6.806;2023-04-06T11:09:30;66363.44;;;8.70;77.19
46614;BME280;32338;50.430;6.806;2023-04-06T11:11:57;66383.50;;;8.86;73.18
46614;BME280;32338;50.430;6.806;2023-04-06T11:14:24;66401.50;;;9.02;74.49
46614;BME280;32338;50.430;6.806;2023-04-06T11:16:53;66426.81;;;9.25;73.14
46614;BME280;32338;50.430;6.806;2023-04-06T11:19:20;66449.91;;;9.47;72.33
46614;BME280;32338;50.430;6.806;2023-04-06T11:21:48;66468.47;;;9.64;75.02
46614;BME280;32338;50.430;6.806;2023-04-06T11:24:16;66476.00;;;9.73;74.41
46614;BME280;32338;50.430;6.806;2023-04-06T11:26:47;66479.53;;;9.71;71.71
46614;BME280;32338;50.430;6.806;2023-04-06T11:29:17;66469.03;;;9.64;70.93
46614;BME280;32338;50.430;6.806;2023-04-06T11:31:46;66454.97;;;9.51;73.34
46614;BME280;32338;50.430;6.806;2023-04-06T11:34:16;66474.47;;;9.67;71.56
46614;BME280;32338;50.430;6.806;2023-04-06T11:36:44;66463.78;;;9.57;70.44
46614;BME280;32338;50.430;6.806;2023-04-06T11:39:12;66461.16;;;9.57;68.23
46614;BME280;32338;50.430;6.806;2023-04-06T11:41:39;66465.28;;;9.63;68.03
46614;BME280;32338;50.430;6.806;2023-04-06T11:44:06;66439.19;;;9.37;68.60
46614;BME280;32338;50.430;6.806;2023-04-06T11:46:33;66447.44;;;9.42;72.09
46614;BME280;32338;50.430;6.806;2023-04-06T11:49:01;66439.97;;;9.40;70.67
46614;BME280;32338;50.430;6.806;2023-04-06T11:51:30;66454.97;;;9.51;72.13
46614;BME280;32338;50.430;6.806;2023-04-06T11:53:57;66473.53;;;9.68;71.84
46614;BME280;32338;50.430;6.806;2023-04-06T11:56:25;66491.75;;;9.80;71.95
46614;BME280;32338;50.430;6.806;2023-04-06T11:58:52;66505.25;;;10.00;73.22
46614;BME280;32338;50.430;6.806;2023-04-06T12:01:20;66540.75;;;10.32;70.40
46614;BME280;32338;50.430;6.806;2023-04-06T12:03:47;66536.06;;;10.26;67.54
46614;BME280;32338;50.430;6.806;2023-04-06T12:06:14;66504.34;;;10.01;66.95
46614;BME280;32338;50.430;6.806;2023-04-06T12:08:42;66470.72;;;9.66;66.90
46614;BME280;32338;50.430;6.806;2023-04-06T12:11:10;66448.19;;;9.45;69.15
46614;BME280;32338;50.430;6.806;2023-04-06T12:13:37;66426.63;;;9.23;69.59
46614;BME280;32338;50.430;6.806;2023-04-06T12:16:04;66416.47;;;9.14;69.32
46614;BME280;32338;50.430;6.806;2023-04-06T12:18:31;66400.75;;;8.99;69.19
46614;BME280;32338;50.430;6.806;2023-04-06T12:20:58;66375.59;;;8.79;74.11
46614;BME280;32338;50.430;6.806;2023-04-06T12:23:25;66387.97;;;8.90;72.46
46614;BME280;32338;50.430;6.806;2023-04-06T12:25:54;66385.38;;;8.90;72.75
46614;BME280;32338;50.430;6.806;2023-04-06T12:28:21;66383.28;;;8.83;74.75
46614;BME280;32338;50.430;6.806;2023-04-06T12:30:48;66382.53;;;8.80;74.72
46614;BME280;32338;50.430;6.806;2023-04-06T12:33:16;66368.31;;;8.72;74.58
46614;BME280;32338;50.430;6.806;2023-04-06T12:35:42;66363.41;;;8.63;75.06
46614;BME280;32338;50.430;6.806;2023-04-06T12:38:09;66380.13;;;8.83;79.17
46614;BME280;32338;50.430;6.806;2023-04-06T12:40:41;66371.13;;;8.74;76.30
46614;BME280;32338;50.430;6.806;2023-04-06T12:43:10;66368.84;;;8.72;78.83
46614;BME280;32338;50.430;6.806;2023-04-06T12:45:38;66368.66;;;8.70;80.14
46614;BME280;32338;50.430;6.806;2023-04-06T12:48:05;66376.91;;;8.75;81.00
46614;BME280;32338;50.430;6.806;2023-04-06T12:50:37;66407.66;;;9.01;87.22
46614;BME280;32338;50.430;6.806;2023-04-06T12:53:04;66390.03;;;8.89;82.99
46614;BME280;32338;50.430;6.806;2023-04-06T12:55:31;66376.00;;;8.76;86.03
46614;BME280;32338;50.430;6.806;2023-04-06T12:58:01;66376.53;;;8.77;90.10